Map

Track Data

SID SEASON NUMBER BASIN SUBBASIN NAME ISO_TIME NATURE LAT LON WMO_WIND WMO_PRES WMO_AGENCY TRACK_TYPE DIST2LAND LANDFALL IFLAG USA_AGENCY USA_ATCF_ID USA_LAT USA_LON USA_RECORD USA_STATUS USA_WIND USA_PRES USA_SSHS USA_R34_NE USA_R34_SE USA_R34_SW USA_R34_NW USA_R50_NE USA_R50_SE USA_R50_SW USA_R50_NW USA_R64_NE USA_R64_SE USA_R64_SW USA_R64_NW USA_POCI USA_ROCI USA_RMW USA_EYE TOKYO_LAT TOKYO_LON TOKYO_GRADE TOKYO_WIND TOKYO_PRES TOKYO_R50_DIR TOKYO_R50_LONG TOKYO_R50_SHORT TOKYO_R30_DIR TOKYO_R30_LONG TOKYO_R30_SHORT TOKYO_LAND CMA_LAT CMA_LON CMA_CAT CMA_WIND CMA_PRES HKO_LAT HKO_LON HKO_CAT HKO_WIND HKO_PRES NEWDELHI_LAT NEWDELHI_LON NEWDELHI_GRADE NEWDELHI_WIND NEWDELHI_PRES NEWDELHI_CI NEWDELHI_DP NEWDELHI_POCI REUNION_LAT REUNION_LON REUNION_TYPE REUNION_WIND REUNION_PRES REUNION_TNUM REUNION_CI REUNION_RMW REUNION_R34_NE REUNION_R34_SE REUNION_R34_SW REUNION_R34_NW REUNION_R50_NE REUNION_R50_SE REUNION_R50_SW REUNION_R50_NW REUNION_R64_NE REUNION_R64_SE REUNION_R64_SW REUNION_R64_NW BOM_LAT BOM_LON BOM_TYPE BOM_WIND BOM_PRES BOM_TNUM BOM_CI BOM_RMW BOM_R34_NE BOM_R34_SE BOM_R34_SW BOM_R34_NW BOM_R50_NE BOM_R50_SE BOM_R50_SW BOM_R50_NW BOM_R64_NE BOM_R64_SE BOM_R64_SW BOM_R64_NW BOM_ROCI BOM_POCI BOM_EYE BOM_POS_METHOD BOM_PRES_METHOD NADI_LAT NADI_LON NADI_CAT NADI_WIND NADI_PRES WELLINGTON_LAT WELLINGTON_LON WELLINGTON_WIND WELLINGTON_PRES DS824_LAT DS824_LON DS824_STAGE DS824_WIND DS824_PRES TD9636_LAT TD9636_LON TD9636_STAGE TD9636_WIND TD9636_PRES TD9635_LAT TD9635_LON TD9635_WIND TD9635_PRES TD9635_ROCI NEUMANN_LAT NEUMANN_LON NEUMANN_CLASS NEUMANN_WIND NEUMANN_PRES MLC_LAT MLC_LON MLC_CLASS MLC_WIND MLC_PRES USA_GUST BOM_GUST BOM_GUST_PER REUNION_GUST REUNION_GUST_PER USA_SEAHGT USA_SEARAD_NE USA_SEARAD_SE USA_SEARAD_SW USA_SEARAD_NW STORM_SPEED STORM_DIR
1955056S14175 1955 15 SP MM NOT_NAMED 1955-02-24 12:00:00 TS -13.9000 175.200 main 472 464 O________OO___ jtwc_sh SH181955 -13.9000 175.200 -1 -13.9000 175.200 TC -13.9000 175.200 4 3 110
1955056S14175 1955 15 SP MM NOT_NAMED 1955-02-24 15:00:00 TS -13.9516 175.349 main 457 441 P________PP___ SH181955 -13.9375 175.350 -1 -13.9375 175.350 TC -13.9797 175.348 4 3 112
1955056S14175 1955 15 SP MM NOT_NAMED 1955-02-24 18:00:00 TS -14.0192 175.499 main 441 425 O________OP___ jtwc_sh SH181955 -14.0000 175.500 -1 -14.0000 175.500 TC -14.0576 175.497 4 3 119
1955056S14175 1955 15 SP MM NOT_NAMED 1955-02-24 21:00:00 TS -14.1105 175.649 main 425 402 P________PP___ SH181955 -14.1000 175.650 -1 -14.1000 175.650 TC -14.1316 175.648 4 3 122
1955056S14175 1955 15 SP MM NOT_NAMED 1955-02-25 00:00:00 TS -14.2000 175.800 main 402 387 O________OO___ jtwc_sh SH181955 -14.2000 175.800 -1 -14.2000 175.800 TC -14.2000 175.800 4 3 116
1955056S14175 1955 15 SP MM NOT_NAMED 1955-02-25 03:00:00 TS -14.2543 175.951 main 379 371 P________PP___ SH181955 -14.2500 175.950 -1 -14.2500 175.950 TC -14.2628 175.954 4 3 110
1955056S14175 1955 15 SP MM NOT_NAMED 1955-02-25 06:00:00 TS -14.3092 176.103 main 371 356 O________OP___ jtwc_sh SH181955 -14.3000 176.100 -1 -14.3000 176.100 TC -14.3275 176.108 4 3 115
1955056S14175 1955 15 SP MM NOT_NAMED 1955-02-25 09:00:00 TS -14.3911 176.252 main 349 333 P________PP___ SH181955 -14.3850 176.250 -1 -14.3850 176.250 TC -14.4034 176.257 4 3 124
1955056S14175 1955 15 SP MM NOT_NAMED 1955-02-25 12:00:00 TS -14.5000 176.400 main 333 318 O________OO___ jtwc_sh SH181955 -14.5000 176.400 -1 -14.5000 176.400 TC -14.5000 176.400 4 4 130
1955056S14175 1955 15 SP MM NOT_NAMED 1955-02-25 15:00:00 TS -14.6392 176.556 main 310 286 P________PP___ SH181955 -14.6425 176.557 -1 -14.6425 176.557 TC -14.6325 176.552 4 4 136
1955056S14175 1955 15 SP MM NOT_NAMED 1955-02-25 18:00:00 TS -14.7950 176.698 main 286 271 O________OP___ jtwc_sh SH181955 -14.8000 176.700 -1 -14.8000 176.700 TC -14.7850 176.695 4 4 141
1955056S14175 1955 15 SP MM NOT_NAMED 1955-02-25 21:00:00 TS -14.9483 176.815 main 271 247 P________PP___ SH181955 -14.9500 176.815 -1 -14.9500 176.815 TC -14.9450 176.815 4 4 148
1955056S14175 1955 15 SP MM NOT_NAMED 1955-02-26 00:00:00 TS -15.1000 176.900 main 247 232 O________OO___ jtwc_sh SH181955 -15.1000 176.900 -1 -15.1000 176.900 TC -15.1000 176.900 4 3 155
1955056S14175 1955 15 SP MM NOT_NAMED 1955-02-26 03:00:00 TS -15.2504 176.963 main 224 216 P________PP___ SH181955 -15.2575 176.972 -1 -15.2575 176.972 TC -15.2362 176.944 4 3 165
1955056S14175 1955 15 SP MM NOT_NAMED 1955-02-26 06:00:00 TS -15.3883 176.984 main 216 209 O________OP___ jtwc_sh SH181955 -15.4000 177.000 -1 -15.4000 177.000 TC -15.3649 176.953 4 3 182
1955056S14175 1955 15 SP MM NOT_NAMED 1955-02-26 09:00:00 TS -15.5004 176.955 main 209 209 P________PP___ SH181955 -15.5075 176.965 -1 -15.5075 176.965 TC -15.4862 176.935 4 2 201
1955056S14175 1955 15 SP MM NOT_NAMED 1955-02-26 12:00:00 TS -15.6000 176.900 main 210 204 O________OO___ jtwc_sh SH181955 -15.6000 176.900 -1 -15.6000 176.900 TC -15.6000 176.900 4 2 204
1955056S14175 1955 15 SP MM NOT_NAMED 1955-02-26 15:00:00 TS -15.7010 176.862 main 204 204 P________PP___ SH181955 -15.7000 176.850 -1 -15.7000 176.850 TC -15.7031 176.885 4 2 203
1955056S14175 1955 15 SP MM NOT_NAMED 1955-02-26 18:00:00 TS -15.8000 176.817 main 204 193 O________OP___ jtwc_sh SH181955 -15.8000 176.800 -1 -15.8000 176.800 TC -15.7999 176.852 4 2 202
1955056S14175 1955 15 SP MM NOT_NAMED 1955-02-26 21:00:00 TS -15.8989 176.775 main 193 188 P________PP___ SH181955 -15.9000 176.765 -1 -15.9000 176.765 TC -15.8968 176.794 4 2 210
1955056S14175 1955 15 SP MM NOT_NAMED 1955-02-27 00:00:00 TS -16.0000 176.700 main 188 183 O________OO___ jtwc_sh SH181955 -16.0000 176.700 -1 -16.0000 176.700 TC -16.0000 176.700 4 3 224
1955056S14175 1955 15 SP MM NOT_NAMED 1955-02-27 03:00:00 TS -16.1009 176.573 main 183 180 P________PP___ SH181955 -16.0925 176.572 -1 -16.0925 176.572 TC -16.1178 176.573 4 4 233
1955056S14175 1955 15 SP MM NOT_NAMED 1955-02-27 06:00:00 TS -16.2142 176.403 main 186 178 O________OP___ jtwc_sh SH181955 -16.2000 176.400 -1 -16.2000 176.400 TC -16.2425 176.410 4 4 234
1955056S14175 1955 15 SP MM NOT_NAMED 1955-02-27 09:00:00 TS -16.3570 176.211 main 185 185 P________PP___ SH181955 -16.3500 176.208 -1 -16.3500 176.208 TC -16.3709 176.217 4 5 234
1955056S14175 1955 15 SP MM NOT_NAMED 1955-02-27 12:00:00 TS -16.5000 176.000 main 193 193 O________OO___ jtwc_sh SH181955 -16.5000 176.000 -1 -16.5000 176.000 TC -16.5000 176.000 4 5 237
1955056S14175 1955 15 SP MM NOT_NAMED 1955-02-27 15:00:00 TS -16.6123 175.807 main 203 203 P________PP___ SH181955 -16.5999 175.815 -1 -16.5999 175.815 TC -16.6370 175.792 4 5 240
1955056S14175 1955 15 SP MM NOT_NAMED 1955-02-27 18:00:00 TS -16.7241 175.587 main 216 216 O________OP___ jtwc_sh SH181955 -16.7000 175.600 -1 -16.7000 175.600 TC -16.7722 175.560 4 5 241
1955056S14175 1955 15 SP MM NOT_NAMED 1955-02-27 21:00:00 TS -16.8704 175.314 main 236 236 P________PP___ SH181955 -16.8575 175.323 -1 -16.8575 175.323 TC -16.8963 175.298 4 6 244
1955056S14175 1955 15 SP MM NOT_NAMED 1955-02-28 00:00:00 TS -17.0000 175.000 main 258 258 O________OO___ jtwc_sh SH181955 -17.0000 175.000 -1 -17.0000 175.000 TC -17.0000 175.000 4 7 252
1955056S14175 1955 15 SP MM NOT_NAMED 1955-02-28 03:00:00 TS -17.0698 174.666 main 283 283 P________PP___ SH181955 -17.0649 174.665 -1 -17.0649 174.665 TC -17.0797 174.669 4 7 260
1955056S14175 1955 15 SP MM NOT_NAMED 1955-02-28 06:00:00 TS -17.1125 174.301 main 323 323 O________OP___ jtwc_sh SH181955 -17.1000 174.300 -1 -17.1000 174.300 TC -17.1374 174.302 4 7 263
1955056S14175 1955 15 SP MM NOT_NAMED 1955-02-28 09:00:00 TS -17.1638 173.908 main 361 361 P________PP___ SH181955 -17.1575 173.908 -1 -17.1575 173.908 TC -17.1764 173.910 4 8 263
1955056S14175 1955 15 SP MM NOT_NAMED 1955-02-28 12:00:00 TS -17.2000 173.500 main 402 402 O________OO___ jtwc_sh SH181955 -17.2000 173.500 -1 -17.2000 173.500 TC -17.2000 173.500 4 8 267
1955056S14175 1955 15 SP MM NOT_NAMED 1955-02-28 15:00:00 TS -17.2002 173.099 main 443 443 P________PP___ SH181955 -17.2074 173.107 -1 -17.2074 173.107 TC -17.1859 173.081 4 8 271
1955056S14175 1955 15 SP MM NOT_NAMED 1955-02-28 18:00:00 TS -17.1875 172.683 main 485 483 O________OP___ jtwc_sh SH181955 -17.2000 172.700 -1 -17.2000 172.700 TC -17.1625 172.649 4 8 272
1955056S14175 1955 15 SP MM NOT_NAMED 1955-02-28 21:00:00 TS -17.1709 172.239 main 473 430 P________PP___ SH181955 -17.1775 172.250 -1 -17.1775 172.250 TC -17.1578 172.218 4 8 269
1955056S14175 1955 15 SP MM NOT_NAMED 1955-03-01 00:00:00 TS -17.2000 171.800 main 430 390 O________OO___ jtwc_sh SH181955 -17.2000 171.800 -1 -17.2000 171.800 TC -17.2000 171.800 4 8 260
1955056S14175 1955 15 SP MM NOT_NAMED 1955-03-01 03:00:00 TS -17.3188 171.387 main 390 354 P________PP___ SH181955 -17.3199 171.385 -1 -17.3199 171.385 TC -17.3165 171.391 4 8 249
1955056S14175 1955 15 SP MM NOT_NAMED 1955-03-01 06:00:00 TS -17.4941 170.999 main 354 327 O________OP___ jtwc_sh SH181955 -17.5000 171.000 -1 -17.5000 171.000 TC -17.4824 170.998 4 8 243
1955056S14175 1955 15 SP MM NOT_NAMED 1955-03-01 09:00:00 TS -17.6890 170.634 main 322 302 P________PP___ SH181955 -17.6924 170.635 -1 -17.6924 170.635 TC -17.6822 170.631 4 8 239
1955056S14175 1955 15 SP MM NOT_NAMED 1955-03-01 12:00:00 TS -17.9000 170.300 main 302 287 O________OO___ jtwc_sh SH181955 -17.9000 170.300 -1 -17.9000 170.300 TC -17.9000 170.300 4 7 236
1955056S14175 1955 15 SP MM NOT_NAMED 1955-03-01 15:00:00 TS -18.0984 169.986 main 287 261 P________PP___ SH181955 -18.0925 169.977 -1 -18.0925 169.977 TC -18.1103 170.002 4 10 244
1955056S14175 1955 15 SP MM NOT_NAMED 1955-03-01 17:00:00 TS -18.2658 169.514 main 262 232 P________PP___ SH181955 -18.2276 169.786 -1 -18.2276 169.786 TC -18.2587 169.823 4 24 255
1955056S14175 1955 15 SP MM NOT_NAMED 1955-03-01 18:00:00 TS -18.4028 168.785 main 227 218 O________OP___ jtwc_sh SH181955 -18.3000 169.700 -1 -18.3000 169.700 TC -18.3347 169.740 4 21 254
1955056S14175 1955 15 SP MM NOT_NAMED 1955-03-01 21:00:00 TS -18.6604 168.092 main 237 234 P________PP___ SH181955 -18.5499 169.485 -1 -18.5499 169.485 TC -18.5667 169.508 4 14 250
1955056S14175 1955 15 SP MM NOT_NAMED 1955-03-01 23:00:00 TS -18.7805 167.669 984 bom main 246 246 P_____O__PP___ SH181955 -18.7197 169.361 -1 -17.9000 169.000 984 -18.7197 169.361 TC -18.7225 169.367 4 11 256
1955056S14175 1955 15 SP MM NOT_NAMED 1955-03-02 00:00:00 TS -18.7916 167.519 main 246 246 O_____P__OO___ jtwc_sh SH181955 -18.8000 169.300 -1 -17.9596 168.806 -18.8000 169.300 TC -18.8000 169.300 4 5 248
1955056S14175 1955 15 SP MM NOT_NAMED 1955-03-02 03:00:00 TS -18.9016 167.344 main 258 258 P_____P__PP___ SH181955 -19.0000 169.092 -1 -18.1370 168.228 -19.0000 169.092 TC -19.0370 169.099 4 4 238
1955056S14175 1955 15 SP MM NOT_NAMED 1955-03-02 05:00:00 TS -18.9620 167.232 main 270 270 P_____P__PP___ SH181955 -19.1302 168.961 -1 -18.2536 167.850 -19.1302 168.961 TC -19.1947 168.978 4 4 240
1955056S14175 1955 15 SP MM NOT_NAMED 1955-03-02 06:00:00 TS -18.9973 167.170 main 270 252 O_____P__OP___ jtwc_sh SH181955 -19.2000 168.900 -1 -18.3113 167.665 -19.2000 168.900 TC -19.2723 168.920 4 5 232
1955056S14175 1955 15 SP MM NOT_NAMED 1955-03-02 09:00:00 TS -19.1836 166.936 main 252 221 P_____P__PP___ SH181955 -19.4500 168.735 -1 -18.4815 167.132 -19.4500 168.735 TC -19.4964 168.756 4 6 228
1955056S14175 1955 15 SP MM NOT_NAMED 1955-03-02 12:00:00 TS -19.3657 166.731 main 221 206 O_____P__OO___ jtwc_sh SH181955 -19.7000 168.600 -1 -18.6467 166.639 -19.7000 168.600 TC -19.7000 168.600 4 5 225
1955056S14175 1955 15 SP MM NOT_NAMED 1955-03-02 15:00:00 TS -19.5263 166.570 main 206 190 P_____P__PP___ SH181955 -19.9224 168.507 -1 -18.8064 166.201 -19.9224 168.507 TC -19.8949 168.524 4 4 223
1955056S14175 1955 15 SP MM NOT_NAMED 1955-03-02 17:00:00 TS -19.6248 166.473 main 190 175 P_____P__PP___ SH181955 -20.0473 168.442 -1 -18.9093 165.946 -20.0473 168.442 TC -20.0120 168.474 4 4 223
1955056S14175 1955 15 SP MM NOT_NAMED 1955-03-02 18:00:00 TS -19.6709 166.426 main 175 160 O_____P__OP___ jtwc_sh SH181955 -20.1000 168.400 -1 -18.9597 165.831 -20.1000 168.400 TC -20.0657 168.442 4 4 223
1955056S14175 1955 15 SP MM NOT_NAMED 1955-03-02 21:00:00 TS -19.8048 166.293 main 160 144 P_____P__PP___ SH181955 -20.2297 168.275 -1 -19.1063 165.542 -20.2297 168.275 TC -20.2038 168.290 4 4 226
1955056S14175 1955 15 SP MM NOT_NAMED 1955-03-02 23:00:00 TS -19.8875 166.185 970 bom main 144 137 P_____O__PP___ SH181955 -20.2831 168.118 -1 -19.2000 165.400 970 -20.2831 168.118 TC -20.2731 168.116 4 4 234
1955056S14175 1955 15 SP MM NOT_NAMED 1955-03-03 00:00:00 TS -19.9270 166.119 main 137 115 O_____P__OO___ jtwc_sh SH181955 -20.3000 168.000 -1 -19.2456 165.346 -20.3000 168.000 TC -20.3000 168.000 4 5 244
1955056S14175 1955 15 SP MM NOT_NAMED 1955-03-03 03:00:00 TS -20.0349 165.871 main 115 94 P_____P__PP___ SH181955 -20.3151 167.475 -1 -19.3787 165.241 -20.3151 167.475 TC -20.3485 167.485 4 6 247
1955056S14175 1955 15 SP MM NOT_NAMED 1955-03-03 05:00:00 TS -20.1107 165.660 main 94 88 P_____P__PP___ SH181955 -20.3052 167.032 -1 -19.4660 165.211 -20.3052 167.032 TC -20.3562 167.062 4 7 249
1955056S14175 1955 15 SP MM NOT_NAMED 1955-03-03 06:00:00 TS -20.1546 165.541 main 74 53 O_____P__OP___ jtwc_sh SH181955 -20.3000 166.800 -1 -19.5096 165.205 -20.3000 166.800 TC -20.3543 166.835 4 8 247
1955056S14175 1955 15 SP MM NOT_NAMED 1955-03-03 09:00:00 TS -20.3119 165.144 main 45 0 P_____P__PP___ SH181955 -20.3076 166.100 -1 -19.6422 165.209 -20.3076 166.100 TC -20.3327 166.116 4 9 247
1955056S14175 1955 15 SP MM NOT_NAMED 1955-03-03 12:00:00 TS -20.4857 164.700 main 0 0 O_____P__OO___ jtwc_sh SH181955 -20.3000 165.400 -1 -19.7805 165.228 -20.3000 165.400 TC -20.3000 165.400 4 9 248
1955056S14175 1955 15 SP MM NOT_NAMED 1955-03-03 15:00:00 TS -20.6552 164.254 main 10 10 P_____P__PP___ SH181955 -20.2496 164.785 -1 -19.9284 165.236 -20.2496 164.785 TC -20.2372 164.760 4 9 249
1955056S14175 1955 15 SP MM NOT_NAMED 1955-03-03 17:00:00 TS -20.7631 163.946 main 45 45 P_____P__PP___ SH181955 -20.2134 164.395 -1 -20.0344 165.222 -20.2134 164.395 TC -20.1932 164.343 4 9 250
1955056S14175 1955 15 SP MM NOT_NAMED 1955-03-03 18:00:00 TS -20.8138 163.792 main 53 53 O_____P__OP___ jtwc_sh SH181955 -20.2000 164.200 -1 -20.0900 165.206 -20.2000 164.200 TC -20.1747 164.138 4 9 252
1955056S14175 1955 15 SP MM NOT_NAMED 1955-03-03 21:00:00 TS -20.9520 163.313 main 106 106 P_____P__PP___ SH181955 -20.1624 163.585 -1 -20.2690 165.112 -20.1624 163.585 TC -20.1499 163.548 4 9 253
1955056S14175 1955 15 SP MM NOT_NAMED 1955-03-03 23:00:00 TS -21.0471 162.992 970 bom main 130 137 P_____O__PP___ SH181955 -20.1745 163.188 -1 -20.4000 165.000 970 -20.1745 163.188 TC -20.1726 163.177 4 8 253
1955056S14175 1955 15 SP MM NOT_NAMED 1955-03-04 00:00:00 TS -21.0751 162.888 main 145 145 O_____P__OO___ jtwc_sh SH181955 -20.2000 163.000 -1 -20.4737 164.892 -20.2000 163.000 TC -20.2000 163.000 4 8 249
1955056S14175 1955 15 SP MM NOT_NAMED 1955-03-04 03:00:00 TS -21.2452 162.452 main 185 185 P_____P__PP___ SH181955 -20.3548 162.470 -1 -20.7094 164.508 -20.3548 162.470 TC -20.3622 162.483 4 9 246
1955056S14175 1955 15 SP MM NOT_NAMED 1955-03-04 05:00:00 TS -21.3683 162.185 main 223 223 P_____P__PP___ SH181955 -20.5114 162.150 -1 -20.8768 164.211 -20.5114 162.150 TC -20.5152 162.164 4 8 243
1955056S14175 1955 15 SP MM NOT_NAMED 1955-03-04 06:00:00 TS -21.4269 162.078 main 232 232 O_____P__OP___ jtwc_sh SH181955 -20.6000 162.000 -1 -20.9630 164.052 -20.6000 162.000 TC -20.6019 162.011 4 9 242
1955056S14175 1955 15 SP MM NOT_NAMED 1955-03-04 09:00:00 TS -21.6536 161.610 main 294 294 P_____P__PP___ SH181955 -20.8850 161.555 -1 -21.2292 163.541 -20.8850 161.555 TC -20.8906 161.583 4 10 242
1955056S14175 1955 15 SP MM NOT_NAMED 1955-03-04 12:00:00 TS -21.8746 161.171 main 341 341 O_____P__OO___ jtwc_sh SH181955 -21.2000 161.200 -1 -21.5031 162.994 -21.2000 161.200 TC -21.2000 161.200 4 9 241
1955056S14175 1955 15 SP MM NOT_NAMED 1955-03-04 15:00:00 TS -22.0724 160.787 main 387 387 P_____P__PP___ SH181955 -21.4997 161.000 -1 -21.7801 162.432 -21.4997 161.000 TC -21.4989 160.969 4 8 241
1955056S14175 1955 15 SP MM NOT_NAMED 1955-03-04 17:00:00 TS -22.1982 160.537 main 420 420 P_____P__PP___ SH181955 -21.6998 160.879 -1 -21.9641 162.057 -21.6998 160.879 TC -21.7061 160.835 4 8 242
1955056S14175 1955 15 SP MM NOT_NAMED 1955-03-04 18:00:00 TS -22.2614 160.407 main 434 434 O_____P__OP___ jtwc_sh SH181955 -21.8000 160.800 -1 -22.0555 161.872 -21.8000 160.800 TC -21.8101 160.762 4 8 243
1955056S14175 1955 15 SP EA NOT_NAMED 1955-03-04 21:00:00 TS -22.4505 159.995 main 481 481 P_____P__PP___ SH181955 -22.1067 160.512 -1 -22.3253 161.336 -22.1067 160.512 TC -22.1165 160.475 4 9 245
1955056S14175 1955 15 SP EA NOT_NAMED 1955-03-04 23:00:00 TS -22.5692 159.685 970 bom main 513 513 P_____O__PP___ SH181955 -22.3052 160.206 -1 -22.5000 161.000 970 -22.3052 160.206 TC -22.3092 160.186 4 10 248
1955056S14175 1955 15 SP EA NOT_NAMED 1955-03-05 00:00:00 TS -22.6262 159.515 main 531 531 O_____P__OO___ jtwc_sh SH181955 -22.4000 160.000 -1 -22.5929 160.848 970 -22.4000 160.000 TC -22.4000 160.000 4 11 252
1955056S14175 1955 15 SP EA NOT_NAMED 1955-03-05 03:00:00 TS -22.7953 158.947 main 596 568 P_____P__PP___ SH181955 -22.6728 159.148 -1 -22.8567 160.399 970 -22.6728 159.148 TC -22.6612 159.188 4 11 254
1955056S14175 1955 15 SP EA NOT_NAMED 1955-03-05 05:00:00 TS -22.8874 158.518 970 bom main 568 550 P_____O__PP___ SH181955 -22.8308 158.457 -1 -23.0000 160.100 970 -22.8308 158.457 TC -22.8172 158.535 4 12 258
1955056S14175 1955 15 SP EA NOT_NAMED 1955-03-05 06:00:00 TS -22.9249 158.302 main 550 490 O_____P__OP___ jtwc_sh SH181955 -22.9000 158.100 -1 -23.0552 159.952 -22.9000 158.100 TC -22.8885 158.185 4 12 263
1955056S14175 1955 15 SP EA NOT_NAMED 1955-03-05 09:00:00 TS -22.9772 157.665 main 490 453 P_____P__PP___ SH181955 -23.0810 157.049 -1 -23.1600 159.513 -23.0796 157.050 TC -23.0710 157.089 4 10 268
1955056S14175 1955 15 SP EA NOT_NAMED 1955-03-05 12:00:00 TS -22.9592 157.263 main 453 440 O_____P__OO___ jtwc_sh SH181955 -23.2000 156.000 -1 -23.1870 159.073 -23.2000 156.000 TC -23.2000 156.000 4 5 278
1955056S14175 1955 15 SP EA NOT_NAMED 1955-03-05 15:00:00 TS -22.9080 157.158 main 449 449 P_____P__PP___ SH181955 -23.2572 155.058 -1 -23.1536 158.622 -23.2428 155.011 TC -23.2391 155.066 4 2 80
1955056S14175 1955 15 SP EA NOT_NAMED 1955-03-05 17:00:00 TS -22.9319 157.432 main 467 476 P_____P__PP___ SH181955 -23.2571 154.479 -1 -23.1063 158.312 -23.2274 154.384 TC -23.2237 154.467 4 16 97
1955056S14175 1955 15 SP EA NOT_NAMED 1955-03-05 18:00:00 TS -23.0141 158.042 main 517 480 P_____P__PP___ SH181955 -23.2469 154.203 -1 -23.0771 158.152 -23.2081 154.080 TC -23.2050 154.176 4 1 97
1955056S14175 1955 15 SP EA NOT_NAMED 1955-03-05 21:00:00 TS -22.9411 157.522 main 476 449 P_____P__PP___ SH181955 -23.1802 153.427 -1 -22.9745 157.653 -23.1101 153.209 TC -23.1106 153.333 4 10 279
1955056S14175 1955 15 SP EA NOT_NAMED 1955-03-05 23:00:00 TS -22.8841 157.159 970 bom main 449 431 P_____O__PP___ SH181955 -23.1096 152.950 -1 -22.9000 157.300 970 -23.0166 152.665 TC -23.0207 152.801 4 10 280
1955056S14175 1955 15 SP EA NOT_NAMED 1955-03-06 00:00:00 TS -22.8554 156.985 main 431 394 P_____P__PP___ SH181955 -23.0677 152.723 -1 -22.8663 157.155 -22.9629 152.404 TC -22.9690 152.544 4 10 280
1955056S14175 1955 15 SP EA NOT_NAMED 1955-03-06 03:00:00 TS -22.7642 156.437 main 386 369 P_____P__PP___ SH181955 -22.9198 152.081 -1 -22.7447 156.720 -22.7807 151.666 TC -22.7932 151.812 4 10 281
1955056S14175 1955 15 SP EA NOT_NAMED 1955-03-06 05:00:00 TS -22.6908 156.057 main 369 353 P_____P__PP___ SH181955 -22.8066 151.683 -1 -22.6514 156.420 -22.6466 151.214 TC -22.6634 151.357 4 11 282
1955056S14175 1955 15 SP EA NOT_NAMED 1955-03-06 06:00:00 TS -22.6513 155.863 main 353 325 P_____P__PP___ SH181955 -22.7467 151.493 -1 -22.6025 156.264 -22.5774 150.999 TC -22.5962 151.141 4 11 283
1955056S14175 1955 15 SP EA NOT_NAMED 1955-03-06 09:00:00 TS -22.5254 155.259 main 327 303 P_____P__PP___ SH181955 -22.5584 150.949 -1 -22.4524 155.762 -22.3673 150.405 TC -22.3911 150.535 4 12 283
1955056S14175 1955 15 SP EA NOT_NAMED 1955-03-06 12:00:00 TS -22.3953 154.623 main 299 288 P_____P__PP___ SH181955 -22.3648 150.442 -1 -22.3070 155.185 -22.1642 149.886 TC -22.1910 149.998 4 12 282
1955056S14175 1955 15 SP EA NOT_NAMED 1955-03-06 15:00:00 TS -22.2694 153.950 main 286 200 P_____P__PP___ SH181955 -22.1754 149.962 -1 -22.1782 154.508 -21.9821 149.444 TC -22.0089 149.532 4 21 278
1955056S14175 1955 15 SP EA NOT_NAMED 1955-03-06 17:00:00 TS -22.1483 152.721 main 200 131 P_____P__PP___ SH181955 -22.0563 149.653 -1 -22.1073 153.987 -21.8793 149.193 TC -21.9039 149.263 4 39 276
1955056S14175 1955 15 SP EA NOT_NAMED 1955-03-06 18:00:00 TS -22.0794 151.849 main 112 44 O_____P__PP___ jtwc_sh SH191955 -22.0000 149.500 -1 -22.0774 153.703 -21.8349 149.081 TC -21.8577 149.142 4 29 273
1955056S14175 1955 15 SP EA NOT_NAMED 1955-03-06 21:00:00 TS -22.0390 150.618 main 44 11 P_____P__PP___ SH191955 -21.8162 148.979 -1 -22.0152 152.741 -21.7363 148.799 TC -21.7505 148.830 4 22 271
1955056S14175 1955 15 SP EA NOT_NAMED 1955-03-06 23:00:00 TS -22.0567 149.871 968 bom main 15 15 P_____O__PP___ SH191955 -21.7258 148.704 -1 -22.0000 152.000 968 -21.7043 148.657 TC -21.7097 148.667 4 19 270
1955056S14175 1955 15 SP EA NOT_NAMED 1955-03-07 00:00:00 TS -22.0444 149.574 bom main 15 0 O_____I__OO___ jtwc_sh SH181955 -21.7000 148.600 -1 -22.0000 151.600 967 -21.7000 148.600 TC -21.7000 148.600 4 12 271
1955056S14175 1955 15 SP EA NOT_NAMED 1955-03-07 02:00:00 TS -22.0461 149.218 bom main 0 0 P_____I__PP___ SH181955 -21.6961 148.473 -1 -21.9000 151.200 967 -21.7183 148.505 TC -21.7297 148.505 4 9 268
1955056S14175 1955 15 SP EA NOT_NAMED 1955-03-07 03:00:00 TS -22.0616 149.080 bom main 0 0 P_____I__PP___ SH181955 -21.7123 148.440 -1 -21.9000 151.000 966 -21.7334 148.470 TC -21.7502 148.471 4 8 265
1955056S14175 1955 15 SP EA NOT_NAMED 1955-03-07 04:00:00 TS -22.0668 148.939 bom main 0 0 P_____I__PP___ SH181955 -21.7369 148.421 -1 -21.8000 150.700 966 -21.7522 148.443 TC -21.7736 148.444 4 7 265
1955056S14175 1955 15 SP EA NOT_NAMED 1955-03-07 05:00:00 TS -22.0831 148.813 main 0 0 P_____P__PP___ SH181955 -21.7671 148.409 -1 -21.7863 150.480 966 -21.7744 148.420 TC -21.7995 148.423 4 7 260
1955056S14175 1955 15 SP EA NOT_NAMED 1955-03-07 06:00:00 TS -22.1044 148.700 bom main 0 0 O_____I__OP___ jtwc_sh SH181955 -21.8000 148.400 -1 -21.8000 150.300 965 -21.8000 148.400 TC -21.8273 148.406 4 6 258
1955056S14175 1955 15 SP EA NOT_NAMED 1955-03-07 08:00:00 TS -22.1452 148.486 965 bom main 0 0 P_____O__PP___ SH181955 -21.8642 148.370 -1 -21.7000 149.900 965 4 -21.8642 148.370 TC -21.8860 148.378 4 7 256
1955056S14175 1955 15 SP EA NOT_NAMED 1955-03-07 09:00:00 TS -22.1861 148.354 main 0 0 P_____P__PP___ SH181955 -21.9000 148.357 -1 -21.7274 149.750 -21.9000 148.357 TC -21.9158 148.364 4 8 250
1955056S14175 1955 15 SP EA NOT_NAMED 1955-03-07 10:00:00 TS -22.2334 148.227 bom main 0 0 P_____O__PP___ SH181955 -21.9358 148.344 -1 -21.8000 149.600 -21.9358 148.344 TC -21.9451 148.347 4 7 247
1955056S14175 1955 15 SP EA NOT_NAMED 1955-03-07 12:00:00 TS -22.3235 148.010 bom main 0 0 O_____O__OO___ jtwc_sh SH181955 -22.0000 148.300 -1 -22.0000 149.200 -22.0000 148.300 TC -22.0000 148.300 4 6 248
1955056S14175 1955 15 SP EA NOT_NAMED 1955-03-07 14:00:00 TS -22.3915 147.804 bom main 0 0 P_____O__PP___ SH181955 -22.0412 148.221 -1 -22.1000 148.900 -22.0412 148.221 TC -22.0232 148.219 4 6 250
1955056S14175 1955 15 SP EA NOT_NAMED 1955-03-07 15:00:00 TS -22.4198 147.718 main 0 0 P_____P__PP___ SH181955 -22.0575 148.172 -1 -22.1577 148.750 -22.0575 148.172 TC -22.0327 148.174 4 5 251
1955056S14175 1955 15 SP EA NOT_NAMED 1955-03-07 17:00:00 TS -22.4764 147.541 main 0 0 P_____P__PP___ SH181955 -22.0859 148.061 -1 -22.2880 148.451 -22.0859 148.061 TC -22.0514 148.073 4 5 251
1955056S14175 1955 15 SP EA NOT_NAMED 1955-03-07 18:00:00 TS -22.5074 147.443 main 0 0 O_____P__OP___ jtwc_sh SH181955 -22.1000 148.000 -1 -22.3579 148.304 -22.1000 148.000 TC -22.0623 148.017 4 6 251
1955056S14175 1955 15 SP EA NOT_NAMED 1955-03-07 21:00:00 TS -22.6050 147.129 main 0 0 P_____P__PP___ SH181955 -22.1274 147.822 -1 -22.5701 147.873 -22.1274 147.822 TC -22.1107 147.827 4 6 252
1955056S14175 1955 15 SP EA NOT_NAMED 1955-03-07 23:00:00 TS -22.6664 146.917 980 bom main 0 0 P_____O__PP___ SH181955 -22.1662 147.681 -1 -22.7000 147.600 980 -22.1662 147.681 TC -22.1644 147.680 4 6 253
1955056S14175 1955 15 SP EA NOT_NAMED 1955-03-08 00:00:00 TS -22.6947 146.812 main 0 0 O_____P__OO___ jtwc_sh SH181955 -22.2000 147.600 -1 -22.7593 147.455 -22.2000 147.600 TC -22.2000 147.600 4 6 254
1955056S14175 1955 15 SP EA NOT_NAMED 1955-03-08 03:00:00 TS -22.7826 146.490 main 0 0 P_____P__PP___ SH181955 -22.3775 147.315 -1 -22.9228 147.022 -22.3775 147.315 TC -22.3612 147.320 4 6 255
1955056S14175 1955 15 SP EA NOT_NAMED 1955-03-08 05:00:00 TS -22.8239 146.303 main 0 0 P_____P__PP___ SH181955 -22.5255 147.105 -1 -23.0178 146.741 -22.5255 147.105 TC -22.4926 147.114 4 5 258
1955056S14175 1955 15 SP EA NOT_NAMED 1955-03-08 06:00:00 TS -22.8348 146.225 main 0 0 O_____P__OP___ jtwc_sh SH181955 -22.6000 147.000 -1 -23.0605 146.604 -22.6000 147.000 TC -22.5629 147.008 4 3 270
1955056S14175 1955 15 SP EA NOT_NAMED 1955-03-08 09:00:00 TS -22.8249 146.055 main 0 0 P_____P__PP___ SH181955 -22.8000 146.685 -1 -23.1670 146.217 -22.8000 146.685 TC -22.7831 146.692 4 3 283
1955056S14175 1955 15 SP EA NOT_NAMED 1955-03-08 12:00:00 TS -22.7785 145.958 main 0 0 O_____P__OO___ jtwc_sh SH181955 -23.0000 146.400 -1 -23.2372 145.872 -23.0000 146.400 TC -23.0000 146.400 4 2 307
1955056S14175 1955 15 SP EA NOT_NAMED 1955-03-08 15:00:00 TS -22.7276 145.910 main 0 0 P_____P__PP___ SH181955 -23.2074 146.185 -1 -23.2658 145.584 -23.2074 146.185 TC -23.1967 146.154 4 1 326
1955056S14175 1955 15 SP EA NOT_NAMED 1955-03-08 17:00:00 TS -22.6856 145.897 main 0 0 P_____P__PP___ SH181955 -23.3390 146.061 -1 -23.2593 145.431 -23.3390 146.061 TC -23.3171 146.012 4 1 343
1955056S14175 1955 15 SP EA NOT_NAMED 1955-03-08 18:00:00 TS -22.6623 145.892 main 0 0 O_____P__OP___ jtwc_sh SH181955 -23.4000 146.000 -1 -23.2478 145.367 -23.4000 146.000 TC -23.3748 145.947 4 3 354
1955056S14175 1955 15 SP EA NOT_NAMED 1955-03-08 21:00:00 TS -22.4739 145.893 main 0 0 P_____P__PP___ SH181955 -23.8346 145.678 -1 -23.1779 145.235 -23.5601 145.805 TC -23.5405 145.767 4 5 5
1955056S14175 1955 15 SP EA NOT_NAMED 1955-03-08 23:00:00 TS -22.2451 145.932 992 bom main 0 0 P_____O__PP___ SH181955 -23.8635 145.574 -1 -23.1000 145.200 992 -23.6544 145.669 TC -23.6471 145.655 4 10 12
1955056S14175 1955 15 SP EA NOT_NAMED 1955-03-09 00:00:00 TS -21.9932 145.994 main 0 0 O_____P__OO___ jtwc_sh SH181955 -23.7000 145.600 -1 -23.0384 145.221 -23.7000 145.600 TC -23.7000 145.600 4 12 17
1955056S14175 1955 15 SP EA NOT_NAMED 1955-03-09 03:00:00 TS -21.4534 146.191 main 0 0 P_____P_______ SH181955 -22.0313 146.185 -1 -22.8057 145.357 TC 4 9 20
1955056S14175 1955 15 SP EA NOT_NAMED 1955-03-09 05:00:00 TS -21.2774 146.277 main 0 0 P_____P_______ SH181955 -20.7757 146.636 -1 -22.6176 145.501 TC 4 6 25
1955056S14175 1955 15 SP EA NOT_NAMED 1955-03-09 06:00:00 TS -21.2000 146.316 main 0 0 O_____P_______ jtwc_sh SH191955 -20.3000 146.800 -1 -22.5157 145.586 4 4 26
1955056S14175 1955 15 SP EA NOT_NAMED 1955-03-09 09:00:00 TS -21.0146 146.415 main 0 0 P_____P_______ SH191955 -19.9949 146.838 -1 -22.1871 145.878 4 4 29
1955056S14175 1955 15 SP EA NOT_NAMED 1955-03-09 12:00:00 TS -20.8693 146.509 main 0 0 O_____P_______ jtwc_sh SH191955 -20.2000 146.700 -1 -21.8385 146.207 4 35
1955056S14175 1955 15 SP EA NOT_NAMED 1955-03-09 15:00:00 TS -20.7283 146.630 main 0 0 P_____P_______ SH191955 -20.1925 146.700 -1 -21.4892 146.546 4 40
1955056S14175 1955 15 SP EA NOT_NAMED 1955-03-09 17:00:00 TS -20.6418 146.710 main 0 0 P_____P_______ SH191955 -20.1974 146.703 -1 -21.2652 146.765 3 41
1955056S14175 1955 15 SP EA NOT_NAMED 1955-03-09 18:00:00 TS -20.5984 146.749 main 0 0 O_____P_______ jtwc_sh SH191955 -20.2000 146.700 -1 -21.1581 146.869 3 36
1955056S14175 1955 15 SP EA NOT_NAMED 1955-03-09 21:00:00 TS -20.4794 146.837 main 0 0 P_____P_______ SH191955 -20.2075 146.650 -1 -20.8649 147.149 3 34
1955056S14175 1955 15 SP EA NOT_NAMED 1955-03-09 23:00:00 TS -20.4090 146.882 992 bom main 0 0 P_____O_______ SH191955 -20.2057 146.614 -1 -20.7000 147.300 992 2 28
1955056S14175 1955 15 SP EA NOT_NAMED 1955-03-10 00:00:00 TS -20.3808 146.895 main 0 0 O_____P_______ jtwc_sh SH191955 -20.2000 146.600 -1 -20.6528 147.335 2 18
1955056S14175 1955 15 SP EA NOT_NAMED 1955-03-10 03:00:00 TS -20.3166 146.921 main 0 0 P_____P_______ SH191955 -20.1650 146.600 -1 -20.5451 147.406 1 20
1955056S14175 1955 15 SP EA NOT_NAMED 1955-03-10 05:00:00 TS -20.2753 146.929 main 0 0 P_____P_______ SH191955 -20.1250 146.603 -1 -20.4975 147.429 1 24
1955056S14175 1955 15 SP EA NOT_NAMED 1955-03-10 06:00:00 TS -20.2538 146.929 main 0 0 O_____P_______ jtwc_sh SH191955 -20.1000 146.600 -1 -20.4798 147.434 1 0
1955056S14175 1955 15 SP EA NOT_NAMED 1955-03-10 09:00:00 TS -20.1851 146.902 main 0 0 P_____P_______ SH191955 -20.0000 146.550 -1 -20.4463 147.424 1 336
1955056S14175 1955 15 SP EA NOT_NAMED 1955-03-10 12:00:00 TS -20.1232 146.864 main 0 0 O_____P_______ jtwc_sh SH191955 -19.9000 146.500 -1 -20.4342 147.384 1 325
1955056S14175 1955 15 SP EA NOT_NAMED 1955-03-10 15:00:00 TS -20.0828 146.835 main 0 0 P_____P_______ SH191955 -19.8425 146.500 -1 -20.4326 147.321 1 335
1955056S14175 1955 15 SP EA NOT_NAMED 1955-03-10 17:00:00 TS -20.0611 146.812 main 0 0 P_____P_______ SH191955 -19.8140 146.503 -1 -20.4323 147.271 1 300
1955056S14175 1955 15 SP EA NOT_NAMED 1955-03-10 18:00:00 TS -20.0546 146.795 main 0 0 O_____P_______ jtwc_sh SH191955 -19.8000 146.500 -1 -20.4312 147.244 1 290
1955056S14175 1955 15 SP EA NOT_NAMED 1955-03-10 21:00:00 TS -20.0345 146.726 main 0 0 P_____P_______ SH191955 -19.7575 146.458 -1 -20.4191 147.158 1 291
1955056S14175 1955 15 SP EA NOT_NAMED 1955-03-10 23:00:00 TS -20.0126 146.676 992 bom main 0 0 P_____O_______ SH191955 -19.7224 146.419 -1 -20.4000 147.100 992 2 299
1955056S14175 1955 15 SP EA NOT_NAMED 1955-03-11 00:00:00 TS -19.9960 146.651 main 0 0 O_____P_______ jtwc_sh SH191955 -19.7000 146.400 -1 -20.3839 147.061 2 303
1955056S14175 1955 15 SP EA NOT_NAMED 1955-03-11 03:00:00 TS -19.9384 146.559 main 0 0 P_____P_______ SH191955 -19.6524 146.305 -1 -20.3311 146.929 2 318
1955056S14175 1955 15 SP EA NOT_NAMED 1955-03-11 05:00:00 TS -19.8650 146.522 main 0 0 P_____P_______ SH191955 -19.5702 146.282 -1 -20.2906 146.834 3 343
1955056S14175 1955 15 SP EA NOT_NAMED 1955-03-11 06:00:00 TS -19.8074 146.518 main 0 0 O_____P_______ jtwc_sh SH191955 -19.5000 146.300 -1 -20.2682 146.786 5 10
1955056S14175 1955 15 SP EA NOT_NAMED 1955-03-11 09:00:00 TS -19.5585 146.578 main 0 0 P_____P_______ SH191955 -19.1525 146.498 -1 -20.1906 146.646 6 17
1955056S14175 1955 15 SP EA NOT_NAMED 1955-03-11 12:00:00 TS -19.2448 146.702 main 0 0 O_____P_______ jtwc_sh SH191955 -18.7000 146.800 -1 -20.0938 146.526 7 21
1955056S14175 1955 15 SP EA NOT_NAMED 1955-03-11 15:00:00 TS -18.9124 146.833 main 33 33 P_____P_______ SH191955 -18.2273 147.055 -1 -19.9730 146.441 7 23
1955056S14175 1955 15 SP EA NOT_NAMED 1955-03-11 17:00:00 TS -18.6979 146.954 main 59 59 P_____P_______ SH191955 -17.9296 147.269 -1 -19.8771 146.411 7 32
1955056S14175 1955 15 SP EA NOT_NAMED 1955-03-11 18:00:00 TS -18.6051 147.036 main 70 70 O_____P_______ jtwc_sh SH191955 -17.8000 147.400 -1 -19.8239 146.406 8 51
1955056S14175 1955 15 SP EA NOT_NAMED 1955-03-11 21:00:00 TS -18.3700 147.377 main 109 109 P_____P_______ SH191955 -17.5204 147.957 -1 -19.6419 146.436 8 56
1955056S14175 1955 15 SP EA NOT_NAMED 1955-03-11 23:00:00 TS -18.2247 147.624 992 bom main 135 135 P_____O_______ SH191955 -17.3730 148.338 -1 -19.5000 146.500 992 8 57
1955056S14175 1955 15 SP EA NOT_NAMED 1955-03-12 00:00:00 TS -18.1481 147.743 main 148 148 O_____P_______ jtwc_sh SH191955 -17.3000 148.500 -1 -19.4138 146.574 8 55
1955056S14175 1955 15 SP EA NOT_NAMED 1955-03-12 03:00:00 TS -17.9019 148.100 main 183 183 P_____P_______ SH191955 -17.0872 148.900 -1 -19.1246 146.855 8 48
1955056S14175 1955 15 SP EA NOT_NAMED 1955-03-12 05:00:00 TS -17.7096 148.263 main 212 212 P_____P_______ SH191955 -16.9117 149.013 -1 -18.9104 147.084 7 32
1955056S14175 1955 15 SP EA NOT_NAMED 1955-03-12 06:00:00 TS -17.5928 148.305 main 222 222 O_____P_______ jtwc_sh SH191955 -16.8000 149.000 -1 -18.7982 147.208 8 2
1955056S14175 1955 15 SP EA NOT_NAMED 1955-03-12 09:00:00 TS -17.1633 148.291 main 234 222 P_____P_______ SH191955 -16.3075 148.684 -1 -18.4459 147.608 9 349
1955056S14175 1955 15 SP EA NOT_NAMED 1955-03-12 12:00:00 TS -16.7190 148.127 main 226 221 O_____P_______ jtwc_sh SH191955 -15.8000 148.100 -1 -18.0791 148.031 9 337
1955056S14175 1955 15 SP EA NOT_NAMED 1955-03-12 15:00:00 TS -16.3411 147.933 main 227 221 P_____P_______ SH191955 -15.4320 147.532 -1 -17.7094 148.454 8 328
1955056S14175 1955 15 SP EA NOT_NAMED 1955-03-12 17:00:00 TS -16.1345 147.750 main 226 213 P_____P_______ SH191955 -15.2606 147.067 -1 -17.4672 148.724 10 316
1955056S14175 1955 15 SP EA NOT_NAMED 1955-03-12 18:00:00 TS -15.9822 147.572 main 213 166 O_____P_______ jtwc_sh SH191955 -15.2000 146.800 -1 -17.3487 148.852 13 297
1955056S14175 1955 15 SP EA NOT_NAMED 1955-03-12 21:00:00 TS -15.7271 146.926 main 156 111 P_____P_______ SH191955 -15.0987 145.748 -1 -17.0089 149.204 15 289
1955056S14175 1955 15 SP EA NOT_NAMED 1955-03-12 23:00:00 TS -15.5860 146.360 998 bom main 111 68 P_____O_______ SH191955 -15.0927 145.072 -1 -16.8000 149.400 998 19 284
1955056S14175 1955 15 SP EA NOT_NAMED 1955-03-13 00:00:00 TS -15.4917 145.963 main 68 15 O_____P_______ jtwc_sh SH191955 -15.1000 144.800 -1 -16.7116 149.440 13 279
1955056S14175 1955 15 SP EA NOT_NAMED 1955-03-13 03:00:00 TS -15.4524 145.444 main 15 0 P_____P_______ SH191955 -15.1268 144.313 -1 -16.4637 149.509 9 274
1955056S14175 1955 15 SP EA NOT_NAMED 1955-03-13 05:00:00 TS -15.4454 145.221 main 0 0 P_____P_______ SH191955 -15.1721 144.201 -1 -16.3128 149.513 6 272
1955056S14175 1955 15 SP EA NOT_NAMED 1955-03-13 06:00:00 TS -15.4417 145.156 main 0 0 O_____P_______ jtwc_sh SH191955 -15.2000 144.200 -1 -16.2416 149.505 2 269
1955056S14175 1955 15 SP EA NOT_NAMED 1955-03-13 09:00:00 TS -15.4468 145.077 main 0 0 P_____P_______ SH191955 -15.3000 144.360 -1 -16.0446 149.437 0 0
1955056S14175 1955 15 SP EA NOT_NAMED 1955-03-13 12:00:00 TS -15.4618 145.133 main 0 0 O_____P_______ jtwc_sh SH191955 -15.4000 144.700 -1 -15.8723 149.313 1 98
1955056S14175 1955 15 SP EA NOT_NAMED 1955-03-13 15:00:00 TS -15.4629 145.195 main 0 0 P_____P_______ SH191955 -15.4575 145.000 -1 -15.7240 149.142 1 90
1955056S14175 1955 15 SP EA NOT_NAMED 1955-03-13 17:00:00 TS -15.4616 145.245 main 0 0 P_____P_______ SH191955 -15.4860 145.203 -1 -15.6382 149.006 1 87
1955056S14175 1955 15 SP EA NOT_NAMED 1955-03-13 18:00:00 TS -15.4595 145.261 main 10 10 O_____P_______ jtwc_sh SH191955 -15.5000 145.300 -1 -15.5992 148.932 1 90
1955056S14175 1955 15 SP EA NOT_NAMED 1955-03-13 21:00:00 TS -15.4611 145.311 main 10 10 P_____P_______ SH191955 -15.5499 145.550 -1 -15.4973 148.691 1 96
1955056S14175 1955 15 SP EA NOT_NAMED 1955-03-14 00:00:00 TS -15.4729 145.401 main 15 15 O_____P_______ jtwc_sh SH191955 -15.6000 145.800 -1 -15.4176 148.427 3 95
1955056S14175 1955 15 SP EA NOT_NAMED 1955-03-14 03:00:00 TS -15.4860 145.628 main 31 31 P_____P_______ SH191955 -15.6276 146.123 -1 -15.3598 148.148 4 97
1955056S14175 1955 15 SP EA NOT_NAMED 1955-03-14 05:00:00 TS -15.5150 145.785 main 48 48 P_____P_______ SH191955 -15.6662 146.320 -1 -15.3331 147.957 5 104
1955056S14175 1955 15 SP EA NOT_NAMED 1955-03-14 06:00:00 TS -15.5414 145.858 main 58 58 O_____P_______ jtwc_sh SH191955 -15.7000 146.400 -1 -15.3233 147.862 4 123
1955056S14175 1955 15 SP EA NOT_NAMED 1955-03-14 09:00:00 TS -15.6777 146.042 main 68 68 P_____P_______ SH191955 -15.8924 146.545 -1 -15.3077 147.577 4 133
1955056S14175 1955 15 SP EA NOT_NAMED 1955-03-14 12:00:00 TS -15.8343 146.185 main 82 78 O_____P_______ jtwc_sh SH191955 -16.1000 146.600 -1 -15.3126 147.301 4 136
1955056S14175 1955 15 SP EA NOT_NAMED 1955-03-14 15:00:00 TS -15.9512 146.318 main 86 86 P_____P_______ SH191955 -16.2150 146.645 -1 -15.3375 147.043 3 136
1955056S14175 1955 15 SP EA NOT_NAMED 1955-03-14 17:00:00 TS -16.0200 146.374 main 96 96 P_____P_______ SH191955 -16.2719 146.628 -1 -15.3652 146.884 2 144
1955056S14175 1955 15 SP EA NOT_NAMED 1955-03-14 18:00:00 TS -16.0525 146.388 main 96 96 O_____P_______ jtwc_sh SH191955 -16.3000 146.600 -1 -15.3823 146.810 2 0
1955056S14175 1955 15 SP EA NOT_NAMED 1955-03-14 21:00:00 TS -16.1574 146.360 main 96 85 P_____P_______ SH191955 -16.4001 146.423 -1 -15.4465 146.610 2 207
1955056S14175 1955 15 SP EA NOT_NAMED 1955-03-14 23:00:00 TS -16.1842 146.320 995 bom main 85 85 P_____O_______ SH191955 -16.4667 146.271 -1 -15.5000 146.500 995 1 246
1955056S14175 1955 15 SP EA NOT_NAMED 1955-03-15 00:00:00 TS -16.1800 146.302 main 85 74 O_____P_______ jtwc_sh SH191955 -16.5000 146.200 -1 -15.5266 146.477 2 239
1955056S14175 1955 15 SP EA NOT_NAMED 1955-03-15 03:00:00 TS -16.2448 146.207 main 74 74 P_____P_______ SH191955 -16.6000 146.027 -1 -15.6241 146.421 2 233
1955056S14175 1955 15 SP EA NOT_NAMED 1955-03-15 05:00:00 TS -16.2842 146.159 main 74 64 P_____P_______ SH191955 -16.6667 145.936 -1 -15.7019 146.392 2 223
1955056S14175 1955 15 SP EA NOT_NAMED 1955-03-15 06:00:00 TS -16.3213 146.137 main 64 61 O_____P_______ jtwc_sh SH191955 -16.7000 145.900 -1 -15.7441 146.380 3 205
1955056S14175 1955 15 SP EA NOT_NAMED 1955-03-15 09:00:00 TS -16.4363 146.088 main 61 54 P_____P_______ SH191955 -16.8000 145.835 -1 -15.8815 146.352 2 199
1955056S14175 1955 15 SP EA NOT_NAMED 1955-03-15 12:00:00 TS -16.5553 146.053 main 46 30 O_____P_______ jtwc_sh SH191955 -16.9000 145.800 -1 -16.0311 146.334 3 199
1955056S14175 1955 15 SP EA NOT_NAMED 1955-03-15 15:00:00 TS -16.6788 146.007 main 30 24 P_____P_______ SH191955 -17.0075 145.735 -1 -16.1877 146.323 3 198
1955056S14175 1955 15 SP EA NOT_NAMED 1955-03-15 17:00:00 TS -16.7582 145.984 main 24 24 P_____P_______ SH191955 -17.0724 145.705 -1 -16.2934 146.317 2 197
1955056S14175 1955 15 SP EA NOT_NAMED 1955-03-15 18:00:00 TS -16.7926 145.976 main 24 15 O_____P_______ jtwc_sh SH191955 -17.1000 145.700 -1 -16.3461 146.315 2 185
1955056S14175 1955 15 SP EA NOT_NAMED 1955-03-15 21:00:00 TS -16.8765 145.982 main 15 15 P_____P_______ SH191955 -17.1425 145.742 -1 -16.5011 146.307 2 172
1955056S14175 1955 15 SP EA NOT_NAMED 1955-03-15 23:00:00 TS -16.9337 145.992 997 bom main 15 10 P_____O_______ SH191955 -17.1745 145.784 -1 -16.6000 146.300 997 2 169
1955056S14175 1955 15 SP EA NOT_NAMED 1955-03-16 00:00:00 TS -16.9632 145.996 main 10 10 O_____P_______ jtwc_sh SH191955 -17.2000 145.800 -1 -16.6299 146.300 2 0
1955056S14175 1955 15 SP EA NOT_NAMED 1955-03-16 03:00:00 TS -17.0601 146.009 main 10 10 P_____P_______ SH191955 -17.3050 145.822 -1 -16.7114 146.302 2 174
1955056S14175 1955 15 SP EA NOT_NAMED 1955-03-16 05:00:00 TS -17.1520 146.005 main 10 10 P_____P_______ SH191955 -17.4219 145.814 -1 -16.7620 146.305 3 189
1955056S14175 1955 15 SP EA NOT_NAMED 1955-03-16 06:00:00 TS -17.2113 145.998 main 10 0 O_____P_______ jtwc_sh SH191955 -17.5000 145.800 -1 -16.7870 146.307 4 188
1955056S14175 1955 15 SP EA NOT_NAMED 1955-03-16 09:00:00 TS -17.4348 145.956 main 0 0 P_____P_______ SH191955 -17.8125 145.723 -1 -16.8648 146.307 5 192
1955056S14175 1955 15 SP EA NOT_NAMED 1955-03-16 12:00:00 TS -17.7057 145.884 main 0 0 O_____P_______ jtwc_sh SH191955 -18.2000 145.600 -1 -16.9532 146.298 6 195
1955056S14175 1955 15 SP EA NOT_NAMED 1955-03-16 15:00:00 TS -17.9941 145.795 main 0 0 P_____P_______ SH191955 -18.6000 145.472 -1 -17.0603 146.275 6 198
1955056S14175 1955 15 SP EA NOT_NAMED 1955-03-16 17:00:00 TS -18.1922 145.715 main 0 0 P_____P_______ SH191955 -18.8697 145.364 -1 -17.1462 146.249 6 202
1955056S14175 1955 15 SP EA NOT_NAMED 1955-03-16 18:00:00 TS -18.2874 145.670 main 0 0 O_____P_______ jtwc_sh SH191955 -19.0000 145.300 -1 -17.1943 146.231 6 207
1955056S14175 1955 15 SP EA NOT_NAMED 1955-03-16 21:00:00 TS -18.5680 145.511 main 0 0 P_____P_______ SH191955 -19.3574 145.080 -1 -17.3636 146.163 7 210
1955056S14175 1955 15 SP EA NOT_NAMED 1955-03-16 23:00:00 TS -18.7594 145.377 998 bom main 0 0 P_____O_______ SH191955 -19.5859 144.900 -1 -17.5000 146.100 998 7 214
1955056S14175 1955 15 SP EA NOT_NAMED 1955-03-17 00:00:00 TS -18.8587 145.306 main 0 0 O_____P_______ jtwc_sh SH191955 -19.7000 144.800 -1 -17.5794 146.083 8 215
1955056S14175 1955 15 SP EA NOT_NAMED 1955-03-17 03:00:00 TS -19.1686 145.076 main 0 0 P_____P_______ SH191955 -20.0422 144.502 -1 -17.8452 146.022 8 217
1955056S14175 1955 15 SP EA NOT_NAMED 1955-03-17 05:00:00 TS -19.3877 144.885 main 0 0 P_____P_______ SH191955 -20.2774 144.250 -1 -18.0433 145.969 9 220
1955056S14175 1955 15 SP EA NOT_NAMED 1955-03-17 06:00:00 TS -19.5017 144.778 main 0 0 O_____P_______ jtwc_sh SH191955 -20.4000 144.100 -1 -18.1481 145.938 10 224
1955056S14175 1955 15 SP EA NOT_NAMED 1955-03-17 09:00:00 TS -19.8658 144.393 main 0 0 P_____P_______ SH191955 -20.8000 143.545 -1 -18.4826 145.820 11 227
1955056S14175 1955 15 SP EA NOT_NAMED 1955-03-17 12:00:00 TS -20.2428 143.942 main 0 0 O_____P_______ jtwc_sh SH191955 -21.2000 142.900 -1 -18.8433 145.657 11 229
1955056S14175 1955 15 SP EA NOT_NAMED 1955-03-17 15:00:00 TS -20.6077 143.472 main 0 0 P_____P_______ SH191955 -21.5419 142.287 -1 -19.2246 145.439 12 231
1955056S14175 1955 15 SP EA NOT_NAMED 1955-03-17 17:00:00 TS -20.8582 143.128 main 0 0 P_____P_______ SH191955 -21.7742 141.842 -1 -19.4876 145.257 13 232
1955056S14175 1955 15 SP EA NOT_NAMED 1955-03-17 18:00:00 TS -20.9888 142.943 main 0 0 O_____P_______ jtwc_sh SH191955 -21.9000 141.600 -1 -19.6210 145.154 13 233
1955056S14175 1955 15 SP EA NOT_NAMED 1955-03-17 21:00:00 TS -21.3802 142.385 main 0 0 P_____P_______ SH191955 -22.3287 140.789 -1 -20.0270 144.791 13 233
1955056S14175 1955 15 SP EA NOT_NAMED 1955-03-17 23:00:00 TS -21.6314 142.020 1003 bom main 0 0 P_____O_______ SH191955 -22.6412 140.201 -1 -20.3000 144.500 1003 7 228
1955056S14175 1955 15 SP EA NOT_NAMED 1955-03-18 00:00:00 TS -21.6087 142.111 main 0 0 O_____P_______ jtwc_sh SH191955 -22.8000 139.900 -1 -20.4366 144.339 2 91
1955056S14175 1955 15 SP EA NOT_NAMED 1955-03-18 03:00:00 NR -21.6348 142.196 main 0 0 ______P_______ SH191955 -1 -20.8460 143.794 3 87
1955056S14175 1955 15 SP EA NOT_NAMED 1955-03-18 05:00:00 NR -21.5945 142.387 main 0 0 ______P_______ SH191955 -1 -21.1181 143.384 20 67
1955056S14175 1955 15 SP EA NOT_NAMED 1955-03-18 06:00:00 NR -21.2539 143.166 main 0 0 ______P_______ -1 -21.2539 143.166 1 128
1955056S14175 1955 15 SP EA NOT_NAMED 1955-03-18 09:00:00 NR -21.6596 142.467 main 0 0 ______P_______ -1 -21.6596 142.467 16 239
1955056S14175 1955 15 SP EA NOT_NAMED 1955-03-18 12:00:00 NR -22.0622 141.708 main 0 0 ______P_______ -1 -22.0622 141.708 17 241
1955056S14175 1955 15 SP EA NOT_NAMED 1955-03-18 15:00:00 NR -22.4609 140.900 main 0 0 ______P_______ -1 -22.4609 140.900 17 243
1955056S14175 1955 15 SP EA NOT_NAMED 1955-03-18 18:00:00 NR -22.8549 140.056 main 0 0 ______P_______ -1 -22.8549 140.056 18 244
1955056S14175 1955 15 SP EA NOT_NAMED 1955-03-18 21:00:00 NR -23.2438 139.187 main 0 0 ______P_______ -1 -23.2438 139.187 18 244
1955056S14175 1955 15 SP EA NOT_NAMED 1955-03-18 23:00:00 NR -23.5000 138.600 1006 bom main 0 ______O_______ -1 -23.5000 138.600 1006 18 245

Digital Typhoon Data and Search

About IBTrACS Database

This database is a web-friendly format of International Best Track Archive for Climate Stewardship (IBTrACS), a global best track data archive curated by NOAA dating back to 1842.

Updated: 2021-10-27